Pwllheli, United Kingdom
Current Conditions -  °F | °C
As of 9:50 PM on Saturday 20 Dec 2014 (Local Time) from EGOV Reporting Station
Broken Clouds Broken Clouds  
Wind Chill: 41°   Ceiling: 3500
Heat Index: 48°   Visibility: 6mi
Dew Point: 41°   Wind: 21mph
Humidity: 76%   Direction: 230°SW
Pressure: 30.36"   Gusts: NA
Location:  52.89°N, 4.41°W
Report Text: EGOV 202150Z AUTO 23018KT 9999 FEW021/// BKN035/// 09/05 Q1028
Loading
Personal Weather Stations






























Interactive Weather Map New forecast layout! Learn more

10-Day Weather Forecast

Advertisements
Track Severe Weather on mobile